sensor_id;sensor_type;location;lat;lon;timestamp;pressure;altitude;pressure_sealevel;temperature;humidity
21803;BME280;18591;47.080;22.214;2022-12-18T00:00:10;100831.38;;;5.70;60.90
21803;BME280;18591;47.080;22.214;2022-12-18T00:02:15;100836.72;;;5.66;61.17
21803;BME280;18591;47.080;22.214;2022-12-18T00:04:27;100840.25;;;5.62;60.54
21803;BME280;18591;47.080;22.214;2022-12-18T00:06:30;100842.03;;;5.63;60.93
21803;BME280;18591;47.080;22.214;2022-12-18T00:08:33;100840.25;;;5.62;60.95
21803;BME280;18591;47.080;22.214;2022-12-18T00:10:35;100840.25;;;5.62;60.71
21803;BME280;18591;47.080;22.214;2022-12-18T00:12:37;100840.25;;;5.56;61.15
21803;BME280;18591;47.080;22.214;2022-12-18T00:14:39;100845.59;;;5.58;60.49
21803;BME280;18591;47.080;22.214;2022-12-18T00:16:46;100849.09;;;5.52;60.77
21803;BME280;18591;47.080;22.214;2022-12-18T00:18:52;100852.66;;;5.50;60.17
21803;BME280;18591;47.080;22.214;2022-12-18T00:20:58;100859.75;;;5.49;59.96
21803;BME280;18591;47.080;22.214;2022-12-18T00:23:01;100858.00;;;5.53;59.65
21803;BME280;18591;47.080;22.214;2022-12-18T00:25:03;100873.09;;;5.46;59.72
21803;BME280;18591;47.080;22.214;2022-12-18T00:27:05;100878.41;;;5.44;59.85
21803;BME280;18591;47.080;22.214;2022-12-18T00:29:11;100874.00;;;5.51;59.85
21803;BME280;18591;47.080;22.214;2022-12-18T00:31:19;100871.34;;;5.56;60.15
21803;BME280;18591;47.080;22.214;2022-12-18T00:33:26;100877.53;;;5.55;60.10
21803;BME280;18591;47.080;22.214;2022-12-18T00:35:28;100879.34;;;5.53;59.50
21803;BME280;18591;47.080;22.214;2022-12-18T00:37:31;100893.59;;;5.58;59.89
21803;BME280;18591;47.080;22.214;2022-12-18T00:39:35;100883.78;;;5.60;59.52
21803;BME280;18591;47.080;22.214;2022-12-18T00:41:36;100885.53;;;5.55;59.24
21803;BME280;18591;47.080;22.214;2022-12-18T00:43:57;100886.41;;;5.44;59.75
21803;BME280;18591;47.080;22.214;2022-12-18T00:45:59;100891.72;;;5.43;60.14
21803;BME280;18591;47.080;22.214;2022-12-18T00:48:02;100901.50;;;5.44;59.75
21803;BME280;18591;47.080;22.214;2022-12-18T00:50:06;100897.97;;;5.46;60.25
21803;BME280;18591;47.080;22.214;2022-12-18T00:52:08;100911.28;;;5.43;60.07
21803;BME280;18591;47.080;22.214;2022-12-18T00:54:14;100909.47;;;5.39;59.59
21803;BME280;18591;47.080;22.214;2022-12-18T00:56:16;100913.06;;;5.43;59.59
21803;BME280;18591;47.080;22.214;2022-12-18T00:58:21;100919.25;;;5.39;59.45
21803;BME280;18591;47.080;22.214;2022-12-18T01:00:23;100916.59;;;5.37;59.45
21803;BME280;18591;47.080;22.214;2022-12-18T01:02:27;100913.00;;;5.37;59.73
21803;BME280;18591;47.080;22.214;2022-12-18T01:04:31;100922.81;;;5.38;59.33
21803;BME280;18591;47.080;22.214;2022-12-18T01:06:34;100922.75;;;5.32;59.41
21803;BME280;18591;47.080;22.214;2022-12-18T01:08:36;100921.88;;;5.30;59.47
21803;BME280;18591;47.080;22.214;2022-12-18T01:10:42;100921.81;;;5.23;58.99
21803;BME280;18591;47.080;22.214;2022-12-18T01:12:45;100932.50;;;5.25;59.15
21803;BME280;18591;47.080;22.214;2022-12-18T01:14:47;100926.31;;;5.34;59.29
21803;BME280;18591;47.080;22.214;2022-12-18T01:16:50;100929.00;;;5.34;59.37
21803;BME280;18591;47.080;22.214;2022-12-18T01:18:55;100930.75;;;5.27;59.20
21803;BME280;18591;47.080;22.214;2022-12-18T01:20:57;100936.94;;;5.21;59.10
21803;BME280;18591;47.080;22.214;2022-12-18T01:22:59;100939.59;;;5.20;59.10
21803;BME280;18591;47.080;22.214;2022-12-18T01:25:01;100929.81;;;5.20;59.30
21803;BME280;18591;47.080;22.214;2022-12-18T01:27:05;100934.22;;;5.18;59.43
21803;BME280;18591;47.080;22.214;2022-12-18T01:29:08;100939.59;;;5.26;59.38
21803;BME280;18591;47.080;22.214;2022-12-18T01:31:24;100937.81;;;5.20;58.88
21803;BME280;18591;47.080;22.214;2022-12-18T01:33:26;100945.78;;;5.14;59.08
21803;BME280;18591;47.080;22.214;2022-12-18T01:35:28;100937.81;;;5.19;59.14
21803;BME280;18591;47.080;22.214;2022-12-18T01:37:31;100944.06;;;5.24;58.95
21803;BME280;18591;47.080;22.214;2022-12-18T01:39:33;100944.06;;;5.24;58.96
21803;BME280;18591;47.080;22.214;2022-12-18T01:41:36;100949.34;;;5.21;59.00
21803;BME280;18591;47.080;22.214;2022-12-18T01:43:57;100940.47;;;5.20;59.39
21803;BME280;18591;47.080;22.214;2022-12-18T01:45:59;100950.25;;;5.20;59.06
21803;BME280;18591;47.080;22.214;2022-12-18T01:48:05;100952.88;;;5.15;59.26
21803;BME280;18591;47.080;22.214;2022-12-18T01:50:41;100969.75;;;5.17;59.20
21803;BME280;18591;47.080;22.214;2022-12-18T01:52:51;100976.84;;;5.15;59.24
21803;BME280;18591;47.080;22.214;2022-12-18T01:54:54;100978.66;;;5.19;59.17
21803;BME280;18591;47.080;22.214;2022-12-18T01:56:57;100982.19;;;5.18;59.13
21803;BME280;18591;47.080;22.214;2022-12-18T01:59:03;100980.38;;;5.11;58.67
21803;BME280;18591;47.080;22.214;2022-12-18T02:01:08;100982.13;;;5.11;58.53
21803;BME280;18591;47.080;22.214;2022-12-18T02:03:10;100988.41;;;5.17;59.11
21803;BME280;18591;47.080;22.214;2022-12-18T02:05:19;100976.88;;;5.20;58.88
21803;BME280;18591;47.080;22.214;2022-12-18T02:07:53;100986.56;;;5.07;58.84
21803;BME280;18591;47.080;22.214;2022-12-18T02:10:11;100991.06;;;5.11;58.58
21803;BME280;18591;47.080;22.214;2022-12-18T02:12:20;100988.38;;;5.11;58.61
21803;BME280;18591;47.080;22.214;2022-12-18T02:16:42;100998.97;;;5.05;59.14
21803;BME280;18591;47.080;22.214;2022-12-18T02:18:56;101002.53;;;5.07;58.72
21803;BME280;18591;47.080;22.214;2022-12-18T02:23:51;101001.59;;;5.00;58.82
21803;BME280;18591;47.080;22.214;2022-12-18T02:28:15;101008.81;;;5.12;58.98
21803;BME280;18591;47.080;22.214;2022-12-18T02:30:22;101014.97;;;5.08;59.02
21803;BME280;18591;47.080;22.214;2022-12-18T02:32:31;101020.34;;;5.13;59.04
21803;BME280;18591;47.080;22.214;2022-12-18T02:34:38;101020.41;;;5.19;58.85
21803;BME280;18591;47.080;22.214;2022-12-18T02:36:45;101016.84;;;5.20;59.26
21803;BME280;18591;47.080;22.214;2022-12-18T02:38:53;101017.75;;;5.20;58.76
21803;BME280;18591;47.080;22.214;2022-12-18T02:40:59;101022.09;;;5.11;58.92
21803;BME280;18591;47.080;22.214;2022-12-18T02:43:10;101026.56;;;5.09;58.60
21803;BME280;18591;47.080;22.214;2022-12-18T02:45:14;101033.66;;;5.13;59.72
21803;BME280;18591;47.080;22.214;2022-12-18T02:47:29;101034.53;;;5.09;60.27
21803;BME280;18591;47.080;22.214;2022-12-18T02:52:29;101037.19;;;5.10;59.92
21803;BME280;18591;47.080;22.214;2022-12-18T02:54:55;101042.41;;;4.96;60.09
21803;BME280;18591;47.080;22.214;2022-12-18T02:57:07;101045.13;;;5.01;60.31
21803;BME280;18591;47.080;22.214;2022-12-18T02:59:30;101049.47;;;4.93;60.34
21803;BME280;18591;47.080;22.214;2022-12-18T03:04:17;101047.84;;;5.07;60.13
21803;BME280;18591;47.080;22.214;2022-12-18T03:06:39;101045.09;;;4.99;59.78
21803;BME280;18591;47.080;22.214;2022-12-18T03:08:45;101039.00;;;5.13;59.61
21803;BME280;18591;47.080;22.214;2022-12-18T03:11:00;101053.03;;;4.95;59.46
21803;BME280;18591;47.080;22.214;2022-12-18T03:13:11;101049.63;;;5.10;59.84
21803;BME280;18591;47.080;22.214;2022-12-18T03:17:23;101054.88;;;5.00;59.74
21803;BME280;18591;47.080;22.214;2022-12-18T03:19:29;101051.34;;;5.01;59.62
21803;BME280;18591;47.080;22.214;2022-12-18T03:21:42;101059.31;;;4.98;59.44
21803;BME280;18591;47.080;22.214;2022-12-18T03:23:48;101062.03;;;5.05;59.53
21803;BME280;18591;47.080;22.214;2022-12-18T03:25:56;101069.09;;;5.02;59.65
21803;BME280;18591;47.080;22.214;2022-12-18T03:28:08;101067.31;;;5.00;59.26
21803;BME280;18591;47.080;22.214;2022-12-18T03:30:13;101072.63;;;4.98;59.28
21803;BME280;18591;47.080;22.214;2022-12-18T03:32:27;101075.16;;;4.88;58.50
21803;BME280;18591;47.080;22.214;2022-12-18T03:34:35;101088.47;;;4.85;58.69
21803;BME280;18591;47.080;22.214;2022-12-18T03:36:41;101093.75;;;4.80;59.32
21803;BME280;18591;47.080;22.214;2022-12-18T03:38:44;101096.41;;;4.80;59.24
21803;BME280;18591;47.080;22.214;2022-12-18T03:43:34;101096.41;;;4.78;59.18
21803;BME280;18591;47.080;22.214;2022-12-18T03:45:45;101108.91;;;4.86;58.82
21803;BME280;18591;47.080;22.214;2022-12-18T03:48:05;101112.19;;;4.62;59.25
21803;BME280;18591;47.080;22.214;2022-12-18T03:50:33;101107.88;;;4.74;59.05
21803;BME280;18591;47.080;22.214;2022-12-18T03:52:53;101116.69;;;4.66;59.14
21803;BME280;18591;47.080;22.214;2022-12-18T03:55:03;101110.44;;;4.64;58.91
21803;BME280;18591;47.080;22.214;2022-12-18T03:57:22;101125.47;;;4.58;58.26
21803;BME280;18591;47.080;22.214;2022-12-18T03:59:28;101121.75;;;4.46;58.33
21803;BME280;18591;47.080;22.214;2022-12-18T04:01:40;101119.13;;;4.47;58.65
21803;BME280;18591;47.080;22.214;2022-12-18T04:03:49;101122.72;;;4.51;59.16
21803;BME280;18591;47.080;22.214;2022-12-18T04:05:55;101119.06;;;4.44;58.88
21803;BME280;18591;47.080;22.214;2022-12-18T04:07:58;101130.63;;;4.46;58.58
21803;BME280;18591;47.080;22.214;2022-12-18T04:10:04;101136.81;;;4.44;58.84
21803;BME280;18591;47.080;22.214;2022-12-18T04:12:08;101149.16;;;4.39;58.64
21803;BME280;18591;47.080;22.214;2022-12-18T04:14:11;101145.56;;;4.32;59.12
21803;BME280;18591;47.080;22.214;2022-12-18T04:16:19;101149.84;;;4.24;59.05
21803;BME280;18591;47.080;22.214;2022-12-18T04:18:25;101153.47;;;4.27;59.09
21803;BME280;18591;47.080;22.214;2022-12-18T04:20:28;101150.81;;;4.27;59.06
21803;BME280;18591;47.080;22.214;2022-12-18T04:22:30;101151.69;;;4.28;58.90
21803;BME280;18591;47.080;22.214;2022-12-18T04:24:34;101158.72;;;4.23;58.88
21803;BME280;18591;47.080;22.214;2022-12-18T04:26:45;101160.50;;;4.22;59.27
21803;BME280;18591;47.080;22.214;2022-12-18T04:28:50;101163.13;;;4.19;59.22
21803;BME280;18591;47.080;22.214;2022-12-18T04:30:53;101161.41;;;4.26;58.67
21803;BME280;18591;47.080;22.214;2022-12-18T04:32:56;101171.22;;;4.27;59.00
21803;BME280;18591;47.080;22.214;2022-12-18T04:34:58;101172.06;;;4.26;58.56
21803;BME280;18591;47.080;22.214;2022-12-18T04:37:00;101175.56;;;4.23;58.51
21803;BME280;18591;47.080;22.214;2022-12-18T04:39:04;101170.19;;;4.17;58.81
21803;BME280;18591;47.080;22.214;2022-12-18T04:41:07;101177.25;;;4.15;58.76
21803;BME280;18591;47.080;22.214;2022-12-18T04:43:10;101179.03;;;4.18;58.52
21803;BME280;18591;47.080;22.214;2022-12-18T04:45:13;101183.44;;;4.15;58.41
21803;BME280;18591;47.080;22.214;2022-12-18T04:47:15;101180.59;;;4.03;58.81
21803;BME280;18591;47.080;22.214;2022-12-18T04:49:18;101187.81;;;4.10;58.63
21803;BME280;18591;47.080;22.214;2022-12-18T04:51:20;101187.00;;;4.14;58.16
21803;BME280;18591;47.080;22.214;2022-12-18T04:53:27;101183.44;;;4.14;58.72
21803;BME280;18591;47.080;22.214;2022-12-18T04:55:29;101188.66;;;4.06;58.43
21803;BME280;18591;47.080;22.214;2022-12-18T04:57:32;101188.69;;;4.09;58.37
21803;BME280;18591;47.080;22.214;2022-12-18T04:59:34;101194.75;;;3.99;58.07
21803;BME280;18591;47.080;22.214;2022-12-18T05:01:38;101205.31;;;3.95;58.22
21803;BME280;18591;47.080;22.214;2022-12-18T05:03:41;101217.78;;;3.99;58.27
21803;BME280;18591;47.080;22.214;2022-12-18T05:05:44;101226.50;;;3.88;58.27
21803;BME280;18591;47.080;22.214;2022-12-18T05:07:46;101222.81;;;3.82;58.42
21803;BME280;18591;47.080;22.214;2022-12-18T05:09:48;101229.97;;;3.84;58.58
21803;BME280;18591;47.080;22.214;2022-12-18T05:11:53;101233.34;;;3.73;58.56
21803;BME280;18591;47.080;22.214;2022-12-18T05:13:55;101223.53;;;3.71;58.52
21803;BME280;18591;47.080;22.214;2022-12-18T05:15:58;101230.75;;;3.79;58.45
21803;BME280;18591;47.080;22.214;2022-12-18T05:18:01;101233.38;;;3.76;58.38
21803;BME280;18591;47.080;22.214;2022-12-18T05:20:04;101243.78;;;3.63;58.70
21803;BME280;18591;47.080;22.214;2022-12-18T05:22:06;101248.28;;;3.66;58.59
21803;BME280;18591;47.080;22.214;2022-12-18T05:24:08;101249.16;;;3.65;58.73
21803;BME280;18591;47.080;22.214;2022-12-18T05:26:15;101252.56;;;3.58;58.42
21803;BME280;18591;47.080;22.214;2022-12-18T05:28:19;101252.59;;;3.61;58.74
21803;BME280;18591;47.080;22.214;2022-12-18T05:30:21;101248.94;;;3.53;58.94
21803;BME280;18591;47.080;22.214;2022-12-18T05:32:24;101256.81;;;3.48;58.75
21803;BME280;18591;47.080;22.214;2022-12-18T05:34:26;101253.22;;;3.44;58.68
21803;BME280;18591;47.080;22.214;2022-12-18T05:36:28;101258.41;;;3.38;58.86
21803;BME280;18591;47.080;22.214;2022-12-18T05:38:32;101256.63;;;3.39;58.67
21803;BME280;18591;47.080;22.214;2022-12-18T05:40:35;101263.72;;;3.38;58.75
21803;BME280;18591;47.080;22.214;2022-12-18T05:42:38;101276.91;;;3.34;59.42
21803;BME280;18591;47.080;22.214;2022-12-18T05:44:40;101271.59;;;3.34;58.55
21803;BME280;18591;47.080;22.214;2022-12-18T05:46:43;101271.63;;;3.35;58.71
21803;BME280;18591;47.080;22.214;2022-12-18T05:48:46;101280.38;;;3.30;58.96
21803;BME280;18591;47.080;22.214;2022-12-18T05:50:49;101283.88;;;3.27;58.65
21803;BME280;18591;47.080;22.214;2022-12-18T05:52:52;101291.84;;;3.28;58.84
21803;BME280;18591;47.080;22.214;2022-12-18T05:54:54;101294.56;;;3.30;58.57
21803;BME280;18591;47.080;22.214;2022-12-18T05:56:57;101299.13;;;3.37;58.75
21803;BME280;18591;47.080;22.214;2022-12-18T05:58:59;101300.81;;;3.34;58.56
21803;BME280;18591;47.080;22.214;2022-12-18T06:01:13;101296.06;;;3.17;58.62
21803;BME280;18591;47.080;22.214;2022-12-18T06:03:15;101300.66;;;3.24;58.52
21803;BME280;18591;47.080;22.214;2022-12-18T06:05:18;101308.38;;;3.12;58.69
21803;BME280;18591;47.080;22.214;2022-12-18T06:07:20;101303.84;;;3.08;58.95
21803;BME280;18591;47.080;22.214;2022-12-18T06:09:22;101309.16;;;3.08;58.82
21803;BME280;18591;47.080;22.214;2022-12-18T06:11:26;101317.06;;;3.05;58.75
21803;BME280;18591;47.080;22.214;2022-12-18T06:13:33;101328.72;;;3.12;58.60
21803;BME280;18591;47.080;22.214;2022-12-18T06:15:38;101330.44;;;3.10;58.73
21803;BME280;18591;47.080;22.214;2022-12-18T06:17:40;101331.38;;;3.13;58.83
21803;BME280;18591;47.080;22.214;2022-12-18T06:19:42;101334.00;;;3.10;58.83
21803;BME280;18591;47.080;22.214;2022-12-18T06:21:45;101334.03;;;3.13;58.57
21803;BME280;18591;47.080;22.214;2022-12-18T06:23:47;101345.44;;;3.06;58.73
21803;BME280;18591;47.080;22.214;2022-12-18T06:25:50;101343.50;;;3.00;58.95
21803;BME280;18591;47.080;22.214;2022-12-18T06:27:52;101349.75;;;3.02;58.96
21803;BME280;18591;47.080;22.214;2022-12-18T06:29:54;101358.63;;;3.03;58.81
21803;BME280;18591;47.080;22.214;2022-12-18T06:31:56;101362.03;;;2.96;58.79
21803;BME280;18591;47.080;22.214;2022-12-18T06:34:01;101365.63;;;2.99;58.73
21803;BME280;18591;47.080;22.214;2022-12-18T06:36:07;101364.56;;;2.91;59.20
21803;BME280;18591;47.080;22.214;2022-12-18T06:38:12;101373.66;;;3.01;58.75
21803;BME280;18591;47.080;22.214;2022-12-18T06:40:15;101370.84;;;2.95;59.12
21803;BME280;18591;47.080;22.214;2022-12-18T06:42:17;101369.06;;;2.94;59.30
21803;BME280;18591;47.080;22.214;2022-12-18T06:44:22;101380.41;;;2.87;59.07
21803;BME280;18591;47.080;22.214;2022-12-18T06:46:24;101385.97;;;2.99;58.94
21803;BME280;18591;47.080;22.214;2022-12-18T06:48:27;101380.63;;;2.97;59.24
21803;BME280;18591;47.080;22.214;2022-12-18T06:50:29;101386.09;;;3.05;58.87
21803;BME280;18591;47.080;22.214;2022-12-18T06:52:33;101387.69;;;2.97;58.98
21803;BME280;18591;47.080;22.214;2022-12-18T06:54:35;101395.59;;;2.94;58.92
21803;BME280;18591;47.080;22.214;2022-12-18T06:56:37;101392.25;;;3.02;59.34
21803;BME280;18591;47.080;22.214;2022-12-18T06:58:40;101387.94;;;3.08;59.09
21803;BME280;18591;47.080;22.214;2022-12-18T07:00:42;101400.28;;;3.05;59.29
21803;BME280;18591;47.080;22.214;2022-12-18T07:02:46;101395.91;;;3.08;59.01
21803;BME280;18591;47.080;22.214;2022-12-18T07:04:48;101409.25;;;3.11;59.49
21803;BME280;18591;47.080;22.214;2022-12-18T07:06:50;101407.75;;;3.22;59.52
21803;BME280;18591;47.080;22.214;2022-12-18T07:08:53;101411.44;;;3.30;59.33
21803;BME280;18591;47.080;22.214;2022-12-18T07:10:56;101405.25;;;3.31;59.39
21803;BME280;18591;47.080;22.214;2022-12-18T07:12:58;101413.28;;;3.33;59.44
21803;BME280;18591;47.080;22.214;2022-12-18T07:15:01;101408.06;;;3.37;59.59
21803;BME280;18591;47.080;22.214;2022-12-18T07:17:03;101402.03;;;3.46;59.43
21803;BME280;18591;47.080;22.214;2022-12-18T07:19:07;101409.94;;;3.43;59.46
21803;BME280;18591;47.080;22.214;2022-12-18T07:21:12;101411.09;;;3.56;59.77
21803;BME280;18591;47.080;22.214;2022-12-18T07:23:15;101415.84;;;3.70;59.54
21803;BME280;18591;47.080;22.214;2022-12-18T07:25:17;101419.50;;;3.77;58.97
21803;BME280;18591;47.080;22.214;2022-12-18T07:27:19;101425.88;;;3.87;59.33
21803;BME280;18591;47.080;22.214;2022-12-18T07:29:21;101427.81;;;3.96;58.60
21803;BME280;18591;47.080;22.214;2022-12-18T07:31:25;101438.63;;;4.05;58.69
21803;BME280;18591;47.080;22.214;2022-12-18T07:33:27;101432.53;;;4.10;58.69
21803;BME280;18591;47.080;22.214;2022-12-18T07:35:29;101430.94;;;4.20;57.63
21803;BME280;18591;47.080;22.214;2022-12-18T07:37:31;101430.06;;;4.20;57.52
21803;BME280;18591;47.080;22.214;2022-12-18T07:39:34;101439.81;;;4.21;57.63
21803;BME280;18591;47.080;22.214;2022-12-18T07:41:36;101440.03;;;4.33;57.76
21803;BME280;18591;47.080;22.214;2022-12-18T07:43:44;101448.91;;;4.33;57.30
21803;BME280;18591;47.080;22.214;2022-12-18T07:45:49;101444.47;;;4.32;56.56
21803;BME280;18591;47.080;22.214;2022-12-18T07:47:52;101448.94;;;4.35;56.71
21803;BME280;18591;47.080;22.214;2022-12-18T07:49:54;101451.75;;;4.43;56.92
21803;BME280;18591;47.080;22.214;2022-12-18T07:51:57;101459.81;;;4.47;56.92
21803;BME280;18591;47.080;22.214;2022-12-18T07:54:00;101459.13;;;4.57;56.96
21803;BME280;18591;47.080;22.214;2022-12-18T07:56:10;101467.16;;;4.62;56.40
21803;BME280;18591;47.080;22.214;2022-12-18T07:58:30;101469.00;;;4.66;56.23
21803;BME280;18591;47.080;22.214;2022-12-18T08:00:33;101478.84;;;4.72;56.71
21803;BME280;18591;47.080;22.214;2022-12-18T08:02:36;101478.00;;;4.73;56.74
21803;BME280;18591;47.080;22.214;2022-12-18T08:04:38;101478.97;;;4.78;56.21
21803;BME280;18591;47.080;22.214;2022-12-18T08:06:40;101483.63;;;4.93;56.17
21803;BME280;18591;47.080;22.214;2022-12-18T08:08:48;101483.63;;;4.91;56.06
21803;BME280;18591;47.080;22.214;2022-12-18T08:10:51;101483.59;;;4.88;56.00
21803;BME280;18591;47.080;22.214;2022-12-18T08:12:53;101480.72;;;4.76;55.28
21803;BME280;18591;47.080;22.214;2022-12-18T08:14:56;101481.66;;;4.78;55.65
21803;BME280;18591;47.080;22.214;2022-12-18T08:16:58;101493.19;;;4.80;55.64
21803;BME280;18591;47.080;22.214;2022-12-18T08:19:00;101494.97;;;4.79;55.93
21803;BME280;18591;47.080;22.214;2022-12-18T08:23:15;101504.72;;;4.79;55.21
21803;BME280;18591;47.080;22.214;2022-12-18T08:25:17;101496.06;;;4.91;55.74
21803;BME280;18591;47.080;22.214;2022-12-18T08:27:19;101497.88;;;4.93;55.81
21803;BME280;18591;47.080;22.214;2022-12-18T08:29:30;101502.31;;;4.94;55.69
21803;BME280;18591;47.080;22.214;2022-12-18T08:31:33;101512.97;;;4.94;55.91
21803;BME280;18591;47.080;22.214;2022-12-18T08:33:36;101508.44;;;4.90;55.46
21803;BME280;18591;47.080;22.214;2022-12-18T08:35:39;101501.25;;;4.83;55.40
21803;BME280;18591;47.080;22.214;2022-12-18T08:37:46;101506.72;;;4.91;55.85
21803;BME280;18591;47.080;22.214;2022-12-18T08:40:08;101509.38;;;4.91;55.53
21803;BME280;18591;47.080;22.214;2022-12-18T08:42:10;101509.53;;;5.01;55.83
21803;BME280;18591;47.080;22.214;2022-12-18T08:44:34;101509.50;;;5.00;55.51
21803;BME280;18591;47.080;22.214;2022-12-18T08:46:41;101507.84;;;5.08;54.98
21803;BME280;18591;47.080;22.214;2022-12-18T08:48:44;101508.78;;;5.09;55.29
21803;BME280;18591;47.080;22.214;2022-12-18T08:50:56;101510.19;;;4.87;53.65
21803;BME280;18591;47.080;22.214;2022-12-18T08:52:58;101504.94;;;4.91;54.67
21803;BME280;18591;47.080;22.214;2022-12-18T08:55:00;101512.09;;;4.94;55.10
21803;BME280;18591;47.080;22.214;2022-12-18T08:57:03;101507.81;;;5.04;55.32
21803;BME280;18591;47.080;22.214;2022-12-18T08:59:05;101515.84;;;5.07;54.78
21803;BME280;18591;47.080;22.214;2022-12-18T09:01:09;101515.84;;;5.07;54.94
21803;BME280;18591;47.080;22.214;2022-12-18T09:03:17;101507.81;;;5.04;53.23
21803;BME280;18591;47.080;22.214;2022-12-18T09:05:20;101515.94;;;5.13;54.60
21803;BME280;18591;47.080;22.214;2022-12-18T09:07:22;101523.06;;;5.14;54.94
21803;BME280;18591;47.080;22.214;2022-12-18T09:09:25;101514.31;;;5.22;55.21
21803;BME280;18591;47.080;22.214;2022-12-18T09:11:28;101528.50;;;5.21;54.92
21803;BME280;18591;47.080;22.214;2022-12-18T09:13:30;101526.78;;;5.27;54.52
21803;BME280;18591;47.080;22.214;2022-12-18T09:15:32;101538.28;;;5.22;54.29
21803;BME280;18591;47.080;22.214;2022-12-18T09:17:35;101536.59;;;5.28;54.74
21803;BME280;18591;47.080;22.214;2022-12-18T09:19:38;101535.78;;;5.33;54.80
21803;BME280;18591;47.080;22.214;2022-12-18T09:21:40;101541.22;;;5.41;54.85
21803;BME280;18591;47.080;22.214;2022-12-18T09:23:52;101532.34;;;5.40;54.21
21803;BME280;18591;47.080;22.214;2022-12-18T09:25:59;101527.97;;;5.45;54.48
21803;BME280;18591;47.080;22.214;2022-12-18T09:28:14;101533.28;;;5.42;53.95
21803;BME280;18591;47.080;22.214;2022-12-18T09:30:16;101544.78;;;5.40;54.10
21803;BME280;18591;47.080;22.214;2022-12-18T09:32:21;101539.44;;;5.40;54.37
21803;BME280;18591;47.080;22.214;2022-12-18T09:34:23;101547.50;;;5.44;54.56
21803;BME280;18591;47.080;22.214;2022-12-18T09:36:25;101537.84;;;5.53;54.94
21803;BME280;18591;47.080;22.214;2022-12-18T09:38:27;101545.91;;;5.57;54.95
21803;BME280;18591;47.080;22.214;2022-12-18T09:40:40;101537.00;;;5.57;53.78
21803;BME280;18591;47.080;22.214;2022-12-18T09:42:48;101530.59;;;5.42;53.37
21803;BME280;18591;47.080;22.214;2022-12-18T09:44:53;101542.16;;;5.44;54.22
21803;BME280;18591;47.080;22.214;2022-12-18T09:49:42;101533.59;;;5.65;55.20
21803;BME280;18591;47.080;22.214;2022-12-18T09:51:52;101537.94;;;5.59;54.26
21803;BME280;18591;47.080;22.214;2022-12-18T09:54:04;101536.19;;;5.62;54.28
21803;BME280;18591;47.080;22.214;2022-12-18T09:56:12;101546.06;;;5.68;54.75
21803;BME280;18591;47.080;22.214;2022-12-18T09:58:39;101535.47;;;5.74;53.05
21803;BME280;18591;47.080;22.214;2022-12-18T10:00:44;101539.13;;;5.81;54.19
21803;BME280;18591;47.080;22.214;2022-12-18T10:02:47;101537.31;;;5.78;53.65
21803;BME280;18591;47.080;22.214;2022-12-18T10:05:10;101548.03;;;5.81;54.66
21803;BME280;18591;47.080;22.214;2022-12-18T10:07:24;101539.19;;;5.85;54.88
21803;BME280;18591;47.080;22.214;2022-12-18T10:09:47;101541.81;;;5.81;53.67
21803;BME280;18591;47.080;22.214;2022-12-18T10:12:04;101548.09;;;5.86;54.16
21803;BME280;18591;47.080;22.214;2022-12-18T10:20:46;101541.19;;;5.99;54.45
21803;BME280;18591;47.080;22.214;2022-12-18T10:23:37;101534.94;;;5.98;54.16
21803;BME280;18591;47.080;22.214;2022-12-18T10:25:21;101538.47;;;5.97;53.35
21803;BME280;18591;47.080;22.214;2022-12-18T10:27:26;101543.72;;;5.93;53.03
21803;BME280;18591;47.080;22.214;2022-12-18T10:29:31;101537.63;;;6.00;54.17
21803;BME280;18591;47.080;22.214;2022-12-18T10:31:36;101532.34;;;6.06;54.37
21803;BME280;18591;47.080;22.214;2022-12-18T10:33:38;101530.53;;;6.02;53.19
21803;BME280;18591;47.080;22.214;2022-12-18T10:35:41;101527.84;;;5.99;52.53
21803;BME280;18591;47.080;22.214;2022-12-18T10:40:15;101527.00;;;6.06;53.06
21803;BME280;18591;47.080;22.214;2022-12-18T10:42:22;101518.09;;;6.02;52.85
21803;BME280;18591;47.080;22.214;2022-12-18T10:44:26;101522.53;;;6.03;53.88
21803;BME280;18591;47.080;22.214;2022-12-18T10:46:28;101513.66;;;6.04;53.57
21803;BME280;18591;47.080;22.214;2022-12-18T10:48:31;101512.81;;;6.07;53.30
21803;BME280;18591;47.080;22.214;2022-12-18T10:50:36;101517.22;;;6.05;52.58
21803;BME280;18591;47.080;22.214;2022-12-18T10:53:01;101518.13;;;6.05;53.76
21803;BME280;18591;47.080;22.214;2022-12-18T10:55:16;101520.78;;;6.05;53.07
21803;BME280;18591;47.080;22.214;2022-12-18T10:57:36;101530.59;;;6.06;53.21
21803;BME280;18591;47.080;22.214;2022-12-18T10:59:51;101523.56;;;6.13;52.95
21803;BME280;18591;47.080;22.214;2022-12-18T11:01:58;101517.31;;;6.13;52.99
21803;BME280;18591;47.080;22.214;2022-12-18T11:04:07;101520.00;;;6.13;52.79
21803;BME280;18591;47.080;22.214;2022-12-18T11:06:16;101519.09;;;6.12;53.21
21803;BME280;18591;47.080;22.214;2022-12-18T11:11:21;101522.56;;;6.05;52.31
21803;BME280;18591;47.080;22.214;2022-12-18T11:13:26;101524.47;;;6.15;53.39
21803;BME280;18591;47.080;22.214;2022-12-18T11:15:30;101527.16;;;6.18;53.33
21803;BME280;18591;47.080;22.214;2022-12-18T11:17:34;101520.06;;;6.20;53.62
21803;BME280;18591;47.080;22.214;2022-12-18T11:19:39;101524.47;;;6.15;52.75
21803;BME280;18591;47.080;22.214;2022-12-18T11:21:42;101519.97;;;6.11;52.18
21803;BME280;18591;47.080;22.214;2022-12-18T11:23:52;101523.56;;;6.13;52.14
21803;BME280;18591;47.080;22.214;2022-12-18T11:26:00;101519.97;;;6.09;52.33
21803;BME280;18591;47.080;22.214;2022-12-18T11:28:24;101521.75;;;6.14;53.94
21803;BME280;18591;47.080;22.214;2022-12-18T11:30:36;101526.25;;;6.15;53.78
21803;BME280;18591;47.080;22.214;2022-12-18T11:32:47;101523.63;;;6.21;53.07